createdAt,value
2018-01-12T00:00:51.971Z,26.60
2018-01-12T00:03:18.150Z,25.67
2018-01-12T00:05:45.081Z,28.57
2018-01-12T00:08:11.980Z,30.87
2018-01-12T00:10:38.144Z,31.80
2018-01-12T00:13:04.320Z,25.80
2018-01-12T00:15:30.488Z,27.90
2018-01-12T00:17:56.657Z,32.37
2018-01-12T00:20:23.585Z,31.10
2018-01-12T00:22:49.756Z,26.63
2018-01-12T00:25:16.659Z,31.60
2018-01-12T00:27:42.924Z,30.30
2018-01-12T00:30:09.152Z,31.90
2018-01-12T00:32:35.308Z,31.73
2018-01-12T00:35:01.503Z,28.57
2018-01-12T00:37:27.664Z,27.90
2018-01-12T00:39:53.832Z,29.83
2018-01-12T00:42:20.024Z,33.10
2018-01-12T00:44:46.188Z,33.87
2018-01-12T00:47:12.352Z,30.50
2018-01-12T00:49:38.556Z,33.30
2018-01-12T00:52:04.732Z,33.53
2018-01-12T00:54:30.904Z,31.27
2018-01-12T00:56:57.834Z,29.60
2018-01-12T00:59:23.988Z,27.53
2018-01-12T01:01:50.889Z,32.33
2018-01-12T01:04:17.067Z,37.93
2018-01-12T01:06:43.971Z,32.93
2018-01-12T01:09:10.140Z,39.60
2018-01-12T01:11:37.064Z,34.63
2018-01-12T01:14:03.226Z,30.33
2018-01-12T01:16:29.385Z,34.60
2018-01-12T01:18:55.582Z,34.03
2018-01-12T01:21:21.744Z,34.50
2018-01-12T01:23:47.900Z,31.67
2018-01-12T01:26:14.089Z,34.83
2018-01-12T01:28:40.297Z,34.03
2018-01-12T01:31:06.480Z,29.10
2018-01-12T01:33:32.660Z,34.03
2018-01-12T01:35:58.836Z,28.57
2018-01-12T01:38:25.742Z,27.50
2018-01-12T01:40:51.939Z,31.27
2018-01-12T01:43:18.880Z,36.03
2018-01-12T01:45:45.044Z,31.33
2018-01-12T01:48:11.232Z,34.37
2018-01-12T01:50:38.151Z,31.90
2018-01-12T01:53:04.304Z,33.43
2018-01-12T01:55:30.487Z,29.97
2018-01-12T01:57:56.652Z,33.67
2018-01-12T02:00:22.816Z,37.47
2018-01-12T02:02:49.739Z,33.63
2018-01-12T02:05:15.884Z,33.53
2018-01-12T02:07:42.040Z,35.93
2018-01-12T02:10:08.246Z,27.87
2018-01-12T02:12:34.419Z,28.60
2018-01-12T02:15:00.581Z,27.00
2018-01-12T02:17:26.780Z,30.50
2018-01-12T02:19:53.675Z,32.17
2018-01-12T02:22:19.852Z,25.83
2018-01-12T02:24:46.781Z,25.90
2018-01-12T02:27:12.962Z,27.67
2018-01-12T02:29:39.204Z,30.63
2018-01-12T02:32:05.416Z,27.80
2018-01-12T02:34:32.320Z,30.57
2018-01-12T02:36:58.487Z,26.23
2018-01-12T02:39:25.407Z,24.73
2018-01-12T02:41:51.580Z,25.67
2018-01-12T02:44:18.481Z,21.00
2018-01-12T02:46:44.705Z,20.37
2018-01-12T02:49:10.853Z,25.07
2018-01-12T02:51:37.062Z,25.70
2018-01-12T02:54:04.028Z,23.30
2018-01-12T02:56:30.197Z,25.73
2018-01-12T02:58:57.118Z,25.03
2018-01-12T03:01:23.298Z,20.20
2018-01-12T03:03:49.456Z,29.10
2018-01-12T03:06:15.692Z,28.37
2018-01-12T03:08:41.876Z,24.27
2018-01-12T03:11:08.036Z,23.37
2018-01-12T03:13:34.200Z,25.93
2018-01-12T03:16:00.400Z,19.00
2018-01-12T03:18:27.322Z,24.67
2018-01-12T03:20:53.503Z,26.67
2018-01-12T03:23:19.688Z,24.60
2018-01-12T03:25:45.875Z,26.67
2018-01-12T03:28:12.036Z,31.77
2018-01-12T03:30:39.965Z,29.90
2018-01-12T03:33:06.133Z,28.37
2018-01-12T03:35:32.309Z,32.73
2018-01-12T03:37:59.242Z,33.40
2018-01-12T03:40:25.426Z,45.83
2018-01-12T03:42:51.615Z,41.80
2018-01-12T03:45:17.803Z,44.90
2018-01-12T03:47:43.980Z,48.03
2018-01-12T03:50:10.142Z,41.90
2018-01-12T03:52:36.344Z,47.23
2018-01-12T03:55:02.532Z,45.50
2018-01-12T03:57:28.691Z,53.47
2018-01-12T03:59:55.628Z,45.30
2018-01-12T04:02:21.784Z,53.77
2018-01-12T04:04:47.948Z,53.80
2018-01-12T04:07:14.868Z,53.10
2018-01-12T04:09:41.044Z,60.87
2018-01-12T04:12:07.209Z,60.37
2018-01-12T04:14:33.400Z,75.87
2018-01-12T04:16:59.569Z,62.40
2018-01-12T04:19:25.767Z,61.55
2018-01-12T04:21:52.698Z,68.50
2018-01-12T04:24:18.863Z,66.17
2018-01-12T04:26:45.069Z,61.37
2018-01-12T04:29:12.005Z,70.77
2018-01-12T04:31:38.228Z,70.00
2018-01-12T04:34:04.436Z,64.23
2018-01-12T04:36:30.628Z,66.50
2018-01-12T04:38:56.780Z,69.93
2018-01-12T04:41:22.957Z,77.93
2018-01-12T04:43:49.152Z,78.53
2018-01-12T04:46:15.332Z,76.77
2018-01-12T04:48:41.481Z,76.80
2018-01-12T04:51:08.412Z,75.30
2018-01-12T04:53:34.568Z,79.63
2018-01-12T04:56:01.496Z,80.97
2018-01-12T04:58:27.675Z,80.43
2018-01-12T05:00:54.589Z,91.83
2018-01-12T05:03:20.768Z,72.83
2018-01-12T05:05:47.077Z,78.37
2018-01-12T05:08:14.009Z,84.70
2018-01-12T05:10:40.180Z,82.57
2018-01-12T05:13:07.101Z,81.50
2018-01-12T05:15:33.265Z,80.93
2018-01-12T05:18:00.157Z,79.30
2018-01-12T05:20:26.337Z,98.20
2018-01-12T05:22:52.521Z,92.40
2018-01-12T05:25:18.688Z,86.33
2018-01-12T05:27:45.633Z,88.97
2018-01-12T05:30:11.805Z,102.80
2018-01-12T05:32:38.024Z,105.13
2018-01-12T05:35:04.223Z,101.10
2018-01-12T05:37:30.388Z,102.17
2018-01-12T05:39:57.292Z,89.63
2018-01-12T05:42:24.221Z,90.10
2018-01-12T05:44:50.402Z,96.10
2018-01-12T05:47:16.559Z,101.70
2018-01-12T05:49:43.504Z,92.77
2018-01-12T05:52:09.720Z,97.23
2018-01-12T05:54:36.710Z,99.68
2018-01-12T05:57:02.925Z,96.80
2018-01-12T05:59:29.182Z,89.37
2018-01-12T06:02:07.628Z,94.10
2018-01-12T06:04:46.244Z,99.83
2018-01-12T06:07:12.420Z,94.30
2018-01-12T06:09:39.316Z,86.23
2018-01-12T06:12:05.472Z,99.90
2018-01-12T06:14:31.648Z,87.87
2018-01-12T06:16:57.843Z,98.07
2018-01-12T06:19:23.986Z,81.33
2018-01-12T06:21:50.144Z,90.53
2018-01-12T06:24:16.305Z,87.83
2018-01-12T06:26:42.475Z,91.50
2018-01-12T06:29:08.688Z,98.53
2018-01-12T06:31:34.863Z,80.00
2018-01-12T06:34:01.955Z,86.40
2018-01-12T06:36:28.162Z,81.17
2018-01-12T06:38:55.060Z,80.20
2018-01-12T06:41:21.232Z,89.67
2018-01-12T06:43:48.151Z,94.73
2018-01-12T06:46:14.312Z,82.87
2018-01-12T06:48:41.235Z,89.43
2018-01-12T06:51:07.420Z,82.73
2018-01-12T06:53:33.650Z,86.10
2018-01-12T06:55:59.769Z,77.73
2018-01-12T06:58:26.687Z,77.83
2018-01-12T07:00:52.856Z,81.77
2018-01-12T07:03:19.787Z,84.80
2018-01-12T07:05:45.984Z,74.03
2018-01-12T07:08:12.190Z,83.97
2018-01-12T07:10:38.399Z,75.60
2018-01-12T07:13:05.344Z,85.83
2018-01-12T07:15:32.255Z,93.13
2018-01-12T07:17:58.416Z,95.47
2018-01-12T07:20:36.984Z,85.73
2018-01-12T07:23:15.616Z,90.00
2018-01-12T07:25:41.788Z,90.23
2018-01-12T07:28:07.956Z,85.07
2018-01-12T07:30:34.128Z,99.17
2018-01-12T07:33:00.312Z,108.73
2018-01-12T07:35:26.575Z,101.40
2018-01-12T07:37:53.635Z,107.28
2018-01-12T07:40:26.173Z,108.23
2018-01-12T07:43:08.103Z,110.70
2018-01-12T07:57:47.511Z,104.27
2018-01-12T08:00:13.688Z,117.87
2018-01-12T08:02:46.100Z,103.20
2018-01-12T08:05:13.140Z,117.00
2018-01-12T08:07:39.311Z,117.47
2018-01-12T08:10:06.211Z,121.87
2018-01-12T08:12:33.267Z,114.57
2018-01-12T08:14:59.444Z,118.60
2018-01-12T08:17:26.365Z,98.20
2018-01-12T08:19:52.543Z,105.80
2018-01-12T08:22:18.779Z,108.73
2018-01-12T08:24:45.679Z,101.77
2018-01-12T08:27:12.597Z,105.30
2018-01-12T08:29:38.752Z,96.53
2018-01-12T08:32:04.911Z,112.23
2018-01-12T08:34:31.098Z,111.40
2018-01-12T08:36:58.230Z,108.30
2018-01-12T08:39:24.412Z,113.23
2018-01-12T08:41:50.659Z,109.30
2018-01-12T08:44:16.852Z,119.90
2018-01-12T08:46:43.020Z,106.43
2018-01-12T08:49:09.994Z,105.67
2018-01-12T08:51:36.155Z,112.07
2018-01-12T08:54:03.061Z,107.23
2018-01-12T08:56:29.302Z,127.07
2018-01-12T08:58:55.495Z,96.50
2018-01-12T09:01:21.700Z,114.03
2018-01-12T09:03:48.633Z,106.07
2018-01-12T09:06:14.792Z,107.67
2018-01-12T09:08:41.696Z,102.87
2018-01-12T09:11:07.893Z,117.23
2018-01-12T09:13:46.648Z,110.37
2018-01-12T09:16:12.913Z,94.63
2018-01-12T09:18:52.427Z,101.47
2018-01-12T09:21:22.491Z,119.27
2018-01-12T09:23:53.488Z,117.80
2018-01-12T09:26:19.647Z,111.07
2018-01-12T09:28:46.152Z,94.67
2018-01-12T09:31:12.320Z,100.23
2018-01-12T09:33:39.223Z,110.57
2018-01-12T09:36:05.448Z,99.67
2018-01-12T09:38:44.378Z,105.90
2018-01-12T09:41:10.584Z,107.83
2018-01-12T09:43:36.776Z,104.87
2018-01-12T09:46:02.943Z,120.63
2018-01-12T09:48:29.856Z,100.77
2018-01-12T09:50:56.022Z,104.43
2018-01-12T09:53:22.939Z,99.50
2018-01-12T09:55:49.117Z,105.73
2018-01-12T09:58:15.294Z,98.13
2018-01-12T10:00:41.471Z,89.60
2018-01-12T10:03:08.395Z,110.13
2018-01-12T10:05:34.557Z,99.60
2018-01-12T10:08:04.426Z,109.00
2018-01-12T10:10:31.337Z,106.13
2018-01-12T10:12:57.509Z,97.70
2018-01-12T10:15:24.423Z,100.33
2018-01-12T10:17:50.605Z,107.60
2018-01-12T10:20:16.796Z,100.90
2018-01-12T10:22:42.965Z,117.50
2018-01-12T10:25:09.171Z,94.60
2018-01-12T10:27:35.338Z,109.30
2018-01-12T10:30:01.500Z,110.50
2018-01-12T10:32:40.831Z,103.37
2018-01-12T10:35:16.976Z,101.30
2018-01-12T10:37:43.155Z,93.70
2018-01-12T10:40:19.703Z,98.80
2018-01-12T10:42:45.895Z,93.77
2018-01-12T10:45:12.084Z,89.23
2018-01-12T10:47:46.612Z,95.67
2018-01-12T10:50:16.835Z,87.83
2018-01-12T10:52:48.796Z,94.63
2018-01-12T10:55:14.951Z,99.93
2018-01-12T10:57:41.147Z,101.70
2018-01-12T11:00:07.341Z,97.10
2018-01-12T11:02:33.508Z,98.53
2018-01-12T11:05:00.421Z,99.80
2018-01-12T11:07:26.628Z,101.43
2018-01-12T11:09:52.834Z,109.60
2018-01-12T11:12:19.825Z,97.10
2018-01-12T11:14:46.027Z,115.17
2018-01-12T11:17:12.954Z,93.57
2018-01-12T11:19:39.132Z,117.37
2018-01-12T11:22:05.303Z,104.17
2018-01-12T11:24:31.507Z,119.60
2018-01-12T11:26:57.672Z,111.40
2018-01-12T11:29:23.839Z,106.33
2018-01-12T11:31:50.752Z,105.37
2018-01-12T11:34:16.907Z,112.93
2018-01-12T11:36:43.140Z,107.10
2018-01-12T11:39:10.075Z,107.77
2018-01-12T11:41:36.307Z,106.80
2018-01-12T11:44:02.492Z,101.53
2018-01-12T11:46:28.651Z,97.53
2018-01-12T11:48:54.812Z,97.97
2018-01-12T11:51:21.038Z,103.37
2018-01-12T11:53:47.953Z,97.93
2018-01-12T11:56:14.117Z,103.83
2018-01-12T11:58:40.307Z,95.97
2018-01-12T12:01:06.500Z,93.47
2018-01-12T12:03:33.432Z,97.00
2018-01-12T12:05:59.631Z,90.10
2018-01-12T12:08:25.796Z,93.70
2018-01-12T12:10:51.963Z,89.10
2018-01-12T12:13:18.902Z,105.40
2018-01-12T12:15:45.076Z,100.87
2018-01-12T12:18:11.293Z,91.00
2018-01-12T12:20:38.228Z,95.27
2018-01-12T12:23:04.395Z,94.63
2018-01-12T12:25:30.584Z,81.47
2018-01-12T12:27:56.787Z,85.30
2018-01-12T12:30:22.976Z,94.10
2018-01-12T12:32:49.884Z,89.97
2018-01-12T12:35:16.076Z,88.73
2018-01-12T12:37:42.984Z,89.67
2018-01-12T12:40:09.163Z,87.13
2018-01-12T12:42:35.415Z,76.30
2018-01-12T12:45:01.604Z,81.87
2018-01-12T12:47:27.779Z,77.13
2018-01-12T12:49:53.957Z,79.67
2018-01-12T12:52:20.119Z,83.67
2018-01-12T12:54:47.032Z,82.30
2018-01-12T12:57:13.958Z,74.40
2018-01-12T12:59:40.118Z,79.00
2018-01-12T13:02:06.298Z,79.90
2018-01-12T13:04:32.469Z,76.27
2018-01-12T13:06:58.627Z,65.63
2018-01-12T13:09:24.805Z,61.53
2018-01-12T13:11:50.972Z,72.70
2018-01-12T13:14:17.867Z,72.20
2018-01-12T13:16:44.783Z,73.27
2018-01-12T13:19:10.955Z,84.60
2018-01-12T13:21:37.852Z,80.40
2018-01-12T13:24:04.012Z,75.60
2018-01-12T13:26:30.201Z,69.87
2018-01-12T13:28:56.346Z,67.73
2018-01-12T13:31:22.540Z,65.47
2018-01-12T13:33:49.448Z,70.33
2018-01-12T13:36:15.611Z,74.23
2018-01-12T13:38:42.512Z,75.60
2018-01-12T13:41:08.667Z,64.53
2018-01-12T13:43:34.896Z,63.30
2018-01-12T13:46:01.857Z,73.00
2018-01-12T13:48:28.034Z,70.00
2018-01-12T13:50:54.252Z,76.33
2018-01-12T13:53:20.476Z,70.03
2018-01-12T13:55:47.404Z,66.37
2018-01-12T13:58:14.356Z,72.87
2018-01-12T14:00:40.531Z,68.80
2018-01-12T14:03:07.499Z,61.00
2018-01-12T14:05:33.697Z,60.50
2018-01-12T14:08:00.602Z,56.57
2018-01-12T14:10:26.788Z,58.50
2018-01-12T14:12:53.693Z,67.03
2018-01-12T14:15:19.920Z,63.77
2018-01-12T14:17:46.097Z,50.83
2018-01-12T14:20:13.072Z,57.63
2018-01-12T14:22:39.248Z,58.53
2018-01-12T14:25:05.467Z,57.80
2018-01-12T14:27:31.669Z,62.27
2018-01-12T14:29:57.879Z,56.67
2018-01-12T14:32:24.814Z,54.23
2018-01-12T14:34:51.730Z,49.93
2018-01-12T14:37:17.920Z,57.27
2018-01-12T14:39:44.154Z,62.43
2018-01-12T14:42:11.049Z,52.30
2018-01-12T14:44:38.050Z,55.93
2018-01-12T14:47:05.004Z,55.20
2018-01-12T14:49:31.948Z,55.37
2018-01-12T14:51:58.112Z,53.47
2018-01-12T14:54:24.300Z,52.93
2018-01-12T14:56:50.471Z,49.97
2018-01-12T14:59:17.368Z,45.20
2018-01-12T15:01:43.544Z,52.30
2018-01-12T15:04:10.445Z,56.13
2018-01-12T15:06:36.625Z,51.50
2018-01-12T15:09:03.551Z,49.63
2018-01-12T15:11:29.723Z,51.70
2018-01-12T15:13:56.607Z,52.50
2018-01-12T15:16:22.874Z,48.57
2018-01-12T15:18:49.040Z,44.77
2018-01-12T15:21:15.972Z,55.47
2018-01-12T15:23:42.151Z,42.90
2018-01-12T15:26:08.300Z,44.60
2018-01-12T15:28:34.480Z,47.03
2018-01-12T15:31:01.420Z,45.97
2018-01-12T15:33:28.336Z,45.47
2018-01-12T15:35:54.495Z,49.45
2018-01-12T15:38:20.668Z,46.40
2018-01-12T15:40:46.835Z,46.83
2018-01-12T15:43:13.010Z,46.20
2018-01-12T15:45:40.043Z,43.47
2018-01-12T15:48:06.264Z,42.50
2018-01-12T15:50:32.444Z,50.90
2018-01-12T15:52:58.627Z,46.63
2018-01-12T15:55:24.807Z,41.00
2018-01-12T15:57:51.718Z,43.60
2018-01-12T16:00:17.916Z,36.83
2018-01-12T16:02:44.087Z,40.33
2018-01-12T16:05:10.247Z,36.03
2018-01-12T16:07:36.434Z,34.30
2018-01-12T16:10:02.584Z,34.17
2018-01-12T16:12:28.748Z,59.67
2018-01-12T16:14:55.639Z,36.63
2018-01-12T16:17:21.803Z,37.90
2018-01-12T16:19:47.981Z,37.63
2018-01-12T16:22:14.166Z,37.93
2018-01-12T16:24:40.344Z,35.43
2018-01-12T16:27:07.247Z,33.80
2018-01-12T16:29:33.440Z,38.70
2018-01-12T16:31:59.590Z,35.33
2018-01-12T16:34:25.767Z,35.63
2018-01-12T16:36:51.951Z,39.67
2018-01-12T16:39:18.179Z,42.20
2018-01-12T16:41:45.053Z,32.77
2018-01-12T16:44:11.269Z,35.73
2018-01-12T16:46:38.272Z,30.23
2018-01-12T16:49:04.459Z,33.33
2018-01-12T16:51:30.636Z,33.37
2018-01-12T16:53:57.556Z,37.73
2018-01-12T16:56:23.718Z,31.00
2018-01-12T16:58:50.656Z,36.23
2018-01-12T17:01:16.819Z,34.40
2018-01-12T17:03:43.752Z,35.23
2018-01-12T17:06:09.957Z,31.30
2018-01-12T17:08:36.105Z,32.80
2018-01-12T17:11:02.320Z,36.97
2018-01-12T17:13:28.487Z,32.00
2018-01-12T17:15:54.643Z,32.07
2018-01-12T17:18:21.535Z,33.73
2018-01-12T17:20:47.717Z,29.93
2018-01-12T17:23:14.635Z,26.73
2018-01-12T17:25:41.536Z,30.10
2018-01-12T17:28:07.708Z,30.87
2018-01-12T17:30:33.875Z,28.53
2018-01-12T17:33:00.779Z,33.50
2018-01-12T17:35:27.712Z,29.80
2018-01-12T17:37:53.869Z,29.73
2018-01-12T17:40:20.057Z,37.30
2018-01-12T17:42:46.255Z,36.80
2018-01-12T17:45:13.179Z,34.03
2018-01-12T17:47:39.460Z,32.80
2018-01-12T17:50:06.412Z,34.20
2018-01-12T17:52:33.317Z,40.10
2018-01-12T17:54:59.505Z,42.47
2018-01-12T17:57:25.696Z,35.70
2018-01-12T17:59:51.881Z,37.07
2018-01-12T18:02:18.763Z,34.90
2018-01-12T18:04:44.936Z,39.97
2018-01-12T18:07:11.111Z,37.47
2018-01-12T18:09:37.260Z,39.07
2018-01-12T18:12:03.436Z,41.77
2018-01-12T18:14:29.641Z,35.17
2018-01-12T18:16:55.815Z,41.23
2018-01-12T18:19:22.745Z,39.63
2018-01-12T18:21:48.944Z,37.30
2018-01-12T18:24:16.042Z,42.20
2018-01-12T18:26:42.216Z,42.53
2018-01-12T18:29:08.392Z,43.03
2018-01-12T18:31:34.590Z,39.00
2018-01-12T18:34:00.840Z,43.53
2018-01-12T18:36:27.051Z,39.80
2018-01-12T18:38:53.255Z,38.03
2018-01-12T18:41:19.440Z,41.00
2018-01-12T18:43:45.599Z,44.23
2018-01-12T18:46:11.804Z,39.30
2018-01-12T18:48:38.060Z,44.63
2018-01-12T18:51:04.234Z,41.50
2018-01-12T18:53:30.413Z,43.87
2018-01-12T18:55:56.631Z,45.80
2018-01-12T18:58:22.804Z,46.90
2018-01-12T19:00:49.025Z,40.33
2018-01-12T19:03:15.245Z,44.70
2018-01-12T19:05:41.412Z,37.33
2018-01-12T19:08:07.599Z,42.13
2018-01-12T19:10:33.828Z,43.03
2018-01-12T19:13:00.810Z,44.03
2018-01-12T19:15:26.988Z,42.13
2018-01-12T19:17:53.168Z,49.40
2018-01-12T19:20:19.343Z,46.77
2018-01-12T19:22:46.280Z,46.00
2018-01-12T19:25:12.475Z,49.10
2018-01-12T19:27:38.644Z,48.33
2018-01-12T19:30:04.824Z,41.10
2018-01-12T19:32:31.024Z,42.73
2018-01-12T19:34:58.052Z,45.87
2018-01-12T19:37:24.252Z,43.83
2018-01-12T19:39:50.495Z,51.73
2018-01-12T19:42:16.680Z,46.90
2018-01-12T19:44:43.643Z,43.43
2018-01-12T19:47:10.569Z,47.30
2018-01-12T19:49:36.824Z,52.50
2018-01-12T19:52:03.073Z,51.70
2018-01-12T19:54:29.300Z,49.17
2018-01-12T19:56:55.500Z,50.40
2018-01-12T19:59:21.684Z,46.63
2018-01-12T20:01:47.887Z,46.33
2018-01-12T20:04:14.856Z,46.90
2018-01-12T20:06:41.082Z,63.20
2018-01-12T20:09:08.056Z,54.50
2018-01-12T20:11:34.235Z,71.37
2018-01-12T20:14:00.448Z,66.20
2018-01-12T20:16:26.669Z,58.70
2018-01-12T20:18:52.863Z,53.27
2018-01-12T20:21:19.068Z,50.53
2018-01-12T20:23:45.247Z,51.00
2018-01-12T20:26:11.446Z,49.00
2018-01-12T20:28:37.651Z,53.53
2018-01-12T20:31:03.857Z,51.93
2018-01-12T20:33:30.036Z,54.17
2018-01-12T20:35:56.242Z,56.63
2018-01-12T20:38:22.452Z,48.80
2018-01-12T20:40:48.619Z,45.83
2018-01-12T20:43:14.825Z,51.33
2018-01-12T20:45:41.034Z,49.23
2018-01-12T20:48:07.969Z,47.37
2018-01-12T20:50:34.228Z,46.70
2018-01-12T20:53:00.533Z,50.63
2018-01-12T20:55:26.721Z,48.53
2018-01-12T20:57:52.972Z,54.50
2018-01-12T21:00:19.206Z,53.33
2018-01-12T21:02:45.423Z,51.80
2018-01-12T21:05:11.629Z,53.00
2018-01-12T21:07:38.572Z,56.83
2018-01-12T21:10:05.552Z,53.17
2018-01-12T21:12:31.710Z,47.43
2018-01-12T21:14:57.917Z,51.47
2018-01-12T21:17:24.871Z,54.20
2018-01-12T21:19:51.063Z,49.25
2018-01-12T21:22:17.327Z,72.17
2018-01-12T21:24:44.251Z,53.53
2018-01-12T21:27:11.210Z,56.43
2018-01-12T21:29:37.453Z,55.10
2018-01-12T21:32:04.385Z,56.33
2018-01-12T21:34:31.332Z,56.63
2018-01-12T21:36:57.536Z,54.38
2018-01-12T21:39:23.724Z,49.07
2018-01-12T21:41:50.680Z,54.87
2018-01-12T21:44:17.649Z,53.23
2018-01-12T21:46:43.889Z,51.40
2018-01-12T21:49:10.115Z,49.60
2018-01-12T21:51:36.400Z,53.45
2018-01-12T21:54:03.381Z,49.55
2018-01-12T21:56:30.336Z,52.75
2018-01-12T21:58:57.274Z,62.67
2018-01-12T22:01:23.463Z,49.30
2018-01-12T22:03:49.680Z,51.73
2018-01-12T22:06:15.860Z,55.33
2018-01-12T22:08:42.055Z,45.90
2018-01-12T22:11:08.231Z,51.00
2018-01-12T22:13:35.175Z,53.40
2018-01-12T22:16:01.363Z,55.40
2018-01-12T22:18:27.565Z,53.73
2018-01-12T22:20:53.835Z,49.33
2018-01-12T22:23:20.032Z,50.67
2018-01-12T22:25:46.203Z,49.43
2018-01-12T22:28:12.392Z,45.00
2018-01-12T22:30:38.545Z,48.00
2018-01-12T22:33:05.486Z,51.83
2018-01-12T22:35:32.426Z,43.57
2018-01-12T22:37:59.320Z,49.73
2018-01-12T22:40:25.487Z,47.88
2018-01-12T22:42:51.649Z,48.60
2018-01-12T22:45:18.564Z,52.17
2018-01-12T22:47:44.732Z,45.57
2018-01-12T22:50:10.900Z,52.10
2018-01-12T22:52:37.203Z,54.80
2018-01-12T22:55:04.146Z,50.80
2018-01-12T22:57:30.319Z,45.60
2018-01-12T22:59:57.215Z,49.03
2018-01-12T23:02:23.376Z,55.80
2018-01-12T23:04:50.308Z,50.83
2018-01-12T23:07:16.467Z,51.87
2018-01-12T23:09:43.369Z,43.00
2018-01-12T23:12:09.592Z,43.97
2018-01-12T23:14:35.775Z,49.23
2018-01-12T23:17:01.972Z,44.10
2018-01-12T23:19:28.153Z,57.60
2018-01-12T23:21:55.054Z,49.93
2018-01-12T23:24:21.210Z,46.50
2018-01-12T23:26:47.390Z,45.03
2018-01-12T23:29:13.559Z,43.37
2018-01-12T23:31:39.720Z,44.27
2018-01-12T23:34:06.631Z,50.97
2018-01-12T23:36:32.784Z,50.07
2018-01-12T23:38:58.935Z,46.93
2018-01-12T23:41:25.114Z,49.67
2018-01-12T23:43:51.307Z,50.83
2018-01-12T23:46:17.460Z,47.43
2018-01-12T23:48:43.687Z,40.90
2018-01-12T23:51:10.592Z,45.10
2018-01-12T23:53:36.831Z,47.23
2018-01-12T23:56:03.035Z,43.37
2018-01-12T23:58:29.187Z,50.90
